KACT - Waco Rgnl, TX, US

Issued at 0900 UTC 13 Aug 2022
Updated at 0954 UTC 13 Aug 2022
Potential Impact None Slight Moderate High
Time0951Z 13/10Z 13/11Z 13/12Z 13/13Z 13/14Z 13/15Z 13/16Z 13/17Z 13/18Z 13/19Z 13/20Z 13/21Z 13/22Z>>
Type OBS PRVL PRVL PRVL PRVL PRVL PRVL PRVL PRVL PRVL PRVL PRVL PRVL PRVL
VIS 10 >6 >6 >6 >6 >6 >6 >6 >6 >6 >6 >6 >6 >6
CIG -- -- -- -- -- -- -- -- -- -- -- -- -- --
Cover CLR SCT SCT SCT SCT SCT SCT SCT SCT SCT SCT SCT SCT SCT
FltCat VFR VFR VFR VFR VFR VFR VFR VFR VFR VFR VFR VFR VFR VFR
WX -- -- -- -- -- -- -- -- -- -- -- -- -- --
WDir 20 110 110 110 110 110 110 110 110 110 110 110 110 110
WSpd 4 7 7 7 7 7 7 7 7 7 7 7 7 7
WGst -- -- -- -- -- -- -- -- -- -- -- -- -- --
WSHgt -- -- -- -- -- -- -- -- -- -- -- -- -- --
WSDir -- -- -- -- -- -- -- -- -- -- -- -- -- --
WSSpd -- -- -- -- -- -- -- -- -- -- -- -- -- --
Raw TAF
KACT 130900Z 1309/1406 11007KT P6SM SCT060

Raw METAR
KACT 130951Z AUTO 02004KT 10SM CLR 26/21 A3000 RMK AO2 SLP151 T02560211
KACT 130851Z AUTO 36003KT 10SM CLR 26/21 A3000 RMK AO2 SLP151 T02610211 53000
KACT 130751Z AUTO 10003KT 10SM CLR 28/22 A3000 RMK AO2 SLP151 T02780217
KACT 130651Z AUTO 00000KT 10SM BKN060 OVC075 29/22 A3000 RMK AO2 SLP150 T02890217

METAR Board
Radar Display
Forecast Discussion
For situational awareness. Not to be used for flight planning purposes.